Wednesday, October 17, 2018, 7:29 AM GMT
Back to Local

CWIG, Ile Aux Grues, Que.

Location: , , Canada Lat: 47.067
Local Time: 7:29 AM GMT ( 7:29 GMT) Lon: -70.533
Time Zone: GMT Elev: 59 ft

Show me the last for .
Show Coded

Time T Td Feel RH Dir Speed Gust Alt SLP Vis Weather Sky Remarks
2018-10-17 07:00 - - - 0 220° 17 23 - - 0 Peak wind: 25 mph (22 kts) from 220° at 30 min
2018-10-17 06:00 - - - 0 220° 17 24 - - 0 Peak wind: 24 mph (21 kts) from 210° at 01 min
2018-10-17 05:00 - - - 0 230° 14 23 - - 0 Peak wind: 23 mph (20 kts) from 220° at 59 min
2018-10-17 04:00 - - - 0 230° 14 - - - 0 Peak wind: 20 mph (18 kts) from 230° at 10 min
2018-10-17 03:00 - - - 0 220° 14 - - - 0 Peak wind: 20 mph (18 kts) from 200° at 13 min
2018-10-17 02:00 - - - 0 210° 14 - - - 0 None
2018-10-17 01:00 - - - 0 230° 13 - - - 0 Peak wind: 20 mph (18 kts) from 230° at 04 min
2018-10-17 00:00 - - - 0 240° 15 - - - 0 Peak wind: 26 mph (23 kts) from 240° at 10 min
2018-10-16 23:00 - - - 0 240° 21 28 - - 0 Peak wind: 27 mph (24 kts) from 240° at 59 min
2018-10-16 22:00 - - - 0 260° 18 26 - - 0 Peak wind: 28 mph (25 kts) from 250° at 49 min
2018-10-16 21:00 - - - 0 260° 20 26 - - 0 Peak wind: 32 mph (28 kts) from 250° at 49 min
2018-10-16 20:00 - - - 0 250° 18 26 - - 0 Peak wind: 31 mph (27 kts) from 270° at 09 min
2018-10-16 19:00 - - - 0 250° 24 31 - - 0 Peak wind: 33 mph (29 kts) from 240° at 42 min
2018-10-16 18:00 - - - 0 250° 24 32 - - 0 Peak wind: 34 mph (30 kts) from 250° at 34 min
2018-10-16 17:00 - - - 0 250° 23 30 - - 0 Peak wind: 32 mph (28 kts) from 240° at 37 min
2018-10-16 16:00 - - - 0 250° 20 29 - - 0 Peak wind: 29 mph (26 kts) from 250° at 04 min
2018-10-16 15:00 - - - 0 250° 22 31 - - 0 Peak wind: 34 mph (30 kts) from 260° at 02 min
2018-10-16 14:00 - - - 0 260° 28 43 - - 0 Peak wind: 42 mph (37 kts) from 250° at 52 min
2018-10-16 13:00 - - - 0 230° 28 38 - - 0 Peak wind: 37 mph (33 kts) from 240° at 54 min
2018-10-16 12:00 - - - 0 220° 25 36 - - 0 Peak wind: 35 mph (31 kts) from 220° at 53 min
2018-10-16 11:00 - - - 0 220° 23 31 - - 0 Peak wind: 40 mph (35 kts) from 230° at 17 min
2018-10-16 10:00 - - - 0 230° 30 41 - - 0 Peak wind: 46 mph (40 kts) from 240° at 02 min
2018-10-16 09:00 - - - 0 240° 37 49 - - 0 Peak wind: 52 mph (46 kts) from 240° at 17 min
2018-10-16 08:00 - - - 0 240° 35 49 - - 0 Peak wind: 49 mph (43 kts) from 240° at 44 min

Support USWX by starting your Amazon purchase here.